McGrath, AK

9:51 PM AKDT on July 09, 2014 (GMT -0800)
Nikolai AP, Nikolai, AK (PAFS) Elev 413 ft | 63.02 °N, 154.36 °W | Change Station

Current weather conditions updated 55 minutes ago

Clear
Clear
63 °F
Feels Like 63 °F
N
0
Wind Variable Wind from North

Tomorrow is forecast to be Warmer than today.

Today
High -- | Low -- °F
--% Chance of Precip.
Yesterday
High -- | Low -- °F
Precip. -- in
4:37 AM 0:10 AM
Waxing Gibbous, 93% visible
Pressure 29.93 in
Visibility 10.0 miles
Clouds Clear
Dew Point 48 °F
Humidity 58%
Rainfall 0.00 in
Snow Depth Not available.
UV 1 out of 12
Pollen Not available.
Air Quality Not available.
Flu Activity Sporadic
METAR PAFS 100456Z AUTO 00000KT 10SM CLR 17/09 A2991 RMK AO2 TSNO T01720088 SLP135 $

More Conditions Fewer Conditions

Pressure 29.93 in
Visibility 10.0 miles
Clouds Clear
Dew Point 48 °F
Humidity 58%
Rainfall 0.00 in
Snow Depth Not available.
UV 1 out of 12
Pollen Not available.
Air Quality Not available.
Flu Activity Sporadic
METAR PAFS 100456Z AUTO 00000KT 10SM CLR 17/09 A2991 RMK AO2 TSNO T01720088 SLP135 $

More Conditions Fewer Conditions

10-Day Weather Forecast

Almanac

Astronomy

Jul. 09, 2014 Rise Set
Actual Time 4:37 AM AKDT 12:10 AM AKDT
Civil Twilight 2:57 AM AKDT 1:52 AM AKDT
Nautical Twilight Sun does not rise Sun does not rise
Astronomical Twilight Sun does not rise Sun does not rise
Moon 8:59 PM AKDT (7/9) 2:47 AM AKDT (7/9)
Length of Visible Light 22h 55m
Length of Day
19h 33m
Tomorrow will be 4m 14s shorter.
Waxing Gibbous, 93% of the Moon is Illuminated
Jul 10
Waxing Gibbous
Jul 12
Full
Jul 18
Last Quarter
Jul 26
New
Aug 3
First Quarter

Yesterday's Extremes

State Highs State Lows

Community

WunderPhotos

Upload Photos

1,732,075 photos uploaded!

Nearby

Snow Depth

Station Depth Elevation
Susitna Valley High 2 in 375 ft
Point Mackenzie 1 in 200 ft
Indian Pass 1 in 2300 ft
Summit Creek 0 in 1400 ft
Turnagain Pass 0 in 1880 ft

Earthquake Activity

City Distance Mag. Time & Date
No recent earthquake activity has been reported nearby.
Minimum magnitude displayed is 2.5.

Coastal Water Temperatures

Place Temperature
No Stations Reporting

Nearby Weather Stations

There are no personal weather stations in this area.